sensor_id;sensor_type;location;lat;lon;timestamp;temperature;humidity
21039;DHT22;10678;51.002;4.786;2023-04-06T00:00:53;4.90;99.90
21039;DHT22;10678;51.002;4.786;2023-04-06T00:03:19;4.80;99.90
21039;DHT22;10678;51.002;4.786;2023-04-06T00:05:46;4.80;99.90
21039;DHT22;10678;51.002;4.786;2023-04-06T00:08:11;4.70;99.90
21039;DHT22;10678;51.002;4.786;2023-04-06T00:10:37;4.70;99.90
21039;DHT22;10678;51.002;4.786;2023-04-06T00:13:03;4.70;99.90
21039;DHT22;10678;51.002;4.786;2023-04-06T00:15:29;4.70;99.90
21039;DHT22;10678;51.002;4.786;2023-04-06T00:17:55;4.70;99.90
21039;DHT22;10678;51.002;4.786;2023-04-06T00:20:21;4.80;99.90
21039;DHT22;10678;51.002;4.786;2023-04-06T00:22:46;4.80;99.90
21039;DHT22;10678;51.002;4.786;2023-04-06T00:25:12;4.70;99.90
21039;DHT22;10678;51.002;4.786;2023-04-06T00:27:38;4.70;99.90
21039;DHT22;10678;51.002;4.786;2023-04-06T00:30:05;4.80;99.90
21039;DHT22;10678;51.002;4.786;2023-04-06T00:32:31;4.70;99.90
21039;DHT22;10678;51.002;4.786;2023-04-06T00:34:57;4.60;99.90
21039;DHT22;10678;51.002;4.786;2023-04-06T00:37:23;4.60;99.90
21039;DHT22;10678;51.002;4.786;2023-04-06T00:39:48;4.70;99.90
21039;DHT22;10678;51.002;4.786;2023-04-06T00:42:17;4.70;99.90
21039;DHT22;10678;51.002;4.786;2023-04-06T00:44:43;4.70;99.90
21039;DHT22;10678;51.002;4.786;2023-04-06T00:47:09;4.70;99.90
21039;DHT22;10678;51.002;4.786;2023-04-06T00:49:35;4.70;99.90
21039;DHT22;10678;51.002;4.786;2023-04-06T00:52:01;4.70;99.90
21039;DHT22;10678;51.002;4.786;2023-04-06T00:54:28;4.70;99.90
21039;DHT22;10678;51.002;4.786;2023-04-06T00:56:54;4.60;99.90
21039;DHT22;10678;51.002;4.786;2023-04-06T00:59:20;4.60;99.90
21039;DHT22;10678;51.002;4.786;2023-04-06T01:01:46;4.70;99.90
21039;DHT22;10678;51.002;4.786;2023-04-06T01:04:12;4.70;99.90
21039;DHT22;10678;51.002;4.786;2023-04-06T01:06:37;4.70;99.90
21039;DHT22;10678;51.002;4.786;2023-04-06T01:09:03;4.70;99.90
21039;DHT22;10678;51.002;4.786;2023-04-06T01:11:30;4.70;99.90
21039;DHT22;10678;51.002;4.786;2023-04-06T01:13:56;4.70;99.90
21039;DHT22;10678;51.002;4.786;2023-04-06T01:16:22;4.90;99.90
21039;DHT22;10678;51.002;4.786;2023-04-06T01:18:48;5.00;99.90
21039;DHT22;10678;51.002;4.786;2023-04-06T01:21:13;5.00;99.90
21039;DHT22;10678;51.002;4.786;2023-04-06T01:23:45;5.00;99.90
21039;DHT22;10678;51.002;4.786;2023-04-06T01:26:12;5.00;99.90
21039;DHT22;10678;51.002;4.786;2023-04-06T01:28:37;5.10;99.90
21039;DHT22;10678;51.002;4.786;2023-04-06T01:31:04;5.10;99.90
21039;DHT22;10678;51.002;4.786;2023-04-06T01:33:30;5.10;99.90
21039;DHT22;10678;51.002;4.786;2023-04-06T01:35:56;5.00;99.90
21039;DHT22;10678;51.002;4.786;2023-04-06T01:38:21;5.00;99.90
21039;DHT22;10678;51.002;4.786;2023-04-06T01:40:47;5.00;99.90
21039;DHT22;10678;51.002;4.786;2023-04-06T01:43:13;5.00;99.90
21039;DHT22;10678;51.002;4.786;2023-04-06T01:45:38;5.00;99.90
21039;DHT22;10678;51.002;4.786;2023-04-06T01:48:04;5.10;99.90
21039;DHT22;10678;51.002;4.786;2023-04-06T01:50:30;5.10;99.90
21039;DHT22;10678;51.002;4.786;2023-04-06T01:52:55;5.10;99.90
21039;DHT22;10678;51.002;4.786;2023-04-06T01:55:21;5.20;99.90
21039;DHT22;10678;51.002;4.786;2023-04-06T01:57:47;5.20;99.90
21039;DHT22;10678;51.002;4.786;2023-04-06T02:00:13;5.20;99.90
21039;DHT22;10678;51.002;4.786;2023-04-06T02:02:38;5.20;99.90
21039;DHT22;10678;51.002;4.786;2023-04-06T02:05:04;5.30;99.90
21039;DHT22;10678;51.002;4.786;2023-04-06T02:07:30;5.30;99.90
21039;DHT22;10678;51.002;4.786;2023-04-06T02:09:56;5.30;99.90
21039;DHT22;10678;51.002;4.786;2023-04-06T02:12:22;5.40;99.90
21039;DHT22;10678;51.002;4.786;2023-04-06T02:14:47;5.50;99.90
21039;DHT22;10678;51.002;4.786;2023-04-06T02:17:13;5.60;99.90
21039;DHT22;10678;51.002;4.786;2023-04-06T02:19:38;5.60;99.90
21039;DHT22;10678;51.002;4.786;2023-04-06T02:22:04;5.60;99.90
21039;DHT22;10678;51.002;4.786;2023-04-06T02:24:30;5.60;99.90
21039;DHT22;10678;51.002;4.786;2023-04-06T02:26:55;5.60;99.90
21039;DHT22;10678;51.002;4.786;2023-04-06T02:29:21;5.70;99.90
21039;DHT22;10678;51.002;4.786;2023-04-06T02:31:47;5.80;99.90
21039;DHT22;10678;51.002;4.786;2023-04-06T02:34:12;5.80;99.90
21039;DHT22;10678;51.002;4.786;2023-04-06T02:36:46;5.80;99.90
21039;DHT22;10678;51.002;4.786;2023-04-06T02:39:12;5.90;99.90
21039;DHT22;10678;51.002;4.786;2023-04-06T02:41:38;5.80;99.90
21039;DHT22;10678;51.002;4.786;2023-04-06T02:44:06;5.90;99.90
21039;DHT22;10678;51.002;4.786;2023-04-06T02:46:32;5.80;99.90
21039;DHT22;10678;51.002;4.786;2023-04-06T02:48:58;5.90;99.90
21039;DHT22;10678;51.002;4.786;2023-04-06T02:51:26;5.80;99.90
21039;DHT22;10678;51.002;4.786;2023-04-06T02:53:52;5.90;99.90
21039;DHT22;10678;51.002;4.786;2023-04-06T02:56:17;5.90;99.90
21039;DHT22;10678;51.002;4.786;2023-04-06T02:58:43;6.00;99.90
21039;DHT22;10678;51.002;4.786;2023-04-06T03:01:09;6.00;99.90
21039;DHT22;10678;51.002;4.786;2023-04-06T03:03:35;6.00;99.90
21039;DHT22;10678;51.002;4.786;2023-04-06T03:06:00;5.90;99.90
21039;DHT22;10678;51.002;4.786;2023-04-06T03:08:26;6.00;99.90
21039;DHT22;10678;51.002;4.786;2023-04-06T03:10:52;6.00;99.90
21039;DHT22;10678;51.002;4.786;2023-04-06T03:13:17;6.00;99.90
21039;DHT22;10678;51.002;4.786;2023-04-06T03:15:43;6.00;99.90
21039;DHT22;10678;51.002;4.786;2023-04-06T03:18:08;6.10;99.90
21039;DHT22;10678;51.002;4.786;2023-04-06T03:20:34;6.00;99.90
21039;DHT22;10678;51.002;4.786;2023-04-06T03:23:00;6.00;99.90
21039;DHT22;10678;51.002;4.786;2023-04-06T03:25:25;6.10;99.90
21039;DHT22;10678;51.002;4.786;2023-04-06T03:27:51;6.10;99.90
21039;DHT22;10678;51.002;4.786;2023-04-06T03:30:17;6.10;99.90
21039;DHT22;10678;51.002;4.786;2023-04-06T03:32:43;6.20;99.90
21039;DHT22;10678;51.002;4.786;2023-04-06T03:35:09;6.10;99.90
21039;DHT22;10678;51.002;4.786;2023-04-06T03:37:35;6.10;99.90
21039;DHT22;10678;51.002;4.786;2023-04-06T03:40:01;6.10;99.90
21039;DHT22;10678;51.002;4.786;2023-04-06T03:42:28;6.10;99.90
21039;DHT22;10678;51.002;4.786;2023-04-06T03:44:53;6.20;99.90
21039;DHT22;10678;51.002;4.786;2023-04-06T03:47:19;6.20;99.90
21039;DHT22;10678;51.002;4.786;2023-04-06T03:49:45;6.20;99.90
21039;DHT22;10678;51.002;4.786;2023-04-06T03:52:11;6.30;99.90
21039;DHT22;10678;51.002;4.786;2023-04-06T03:54:36;6.30;99.90
21039;DHT22;10678;51.002;4.786;2023-04-06T03:57:02;6.40;99.90
21039;DHT22;10678;51.002;4.786;2023-04-06T03:59:28;6.40;99.90
21039;DHT22;10678;51.002;4.786;2023-04-06T04:01:53;6.40;99.90
21039;DHT22;10678;51.002;4.786;2023-04-06T04:04:19;6.50;99.90
21039;DHT22;10678;51.002;4.786;2023-04-06T04:06:45;6.50;99.90
21039;DHT22;10678;51.002;4.786;2023-04-06T04:09:10;6.50;99.90
21039;DHT22;10678;51.002;4.786;2023-04-06T04:11:36;6.50;99.90
21039;DHT22;10678;51.002;4.786;2023-04-06T04:14:02;6.60;99.90
21039;DHT22;10678;51.002;4.786;2023-04-06T04:16:27;6.60;99.90
21039;DHT22;10678;51.002;4.786;2023-04-06T04:18:53;6.60;99.90
21039;DHT22;10678;51.002;4.786;2023-04-06T04:21:18;6.60;99.90
21039;DHT22;10678;51.002;4.786;2023-04-06T04:23:44;6.70;99.90
21039;DHT22;10678;51.002;4.786;2023-04-06T04:26:10;6.70;99.90
21039;DHT22;10678;51.002;4.786;2023-04-06T04:28:36;6.80;99.90
21039;DHT22;10678;51.002;4.786;2023-04-06T04:31:01;6.80;99.90
21039;DHT22;10678;51.002;4.786;2023-04-06T04:33:27;6.80;99.90
21039;DHT22;10678;51.002;4.786;2023-04-06T04:35:52;6.90;99.90
21039;DHT22;10678;51.002;4.786;2023-04-06T04:38:18;6.90;99.90
21039;DHT22;10678;51.002;4.786;2023-04-06T04:40:44;6.90;99.90
21039;DHT22;10678;51.002;4.786;2023-04-06T04:43:09;6.90;99.90
21039;DHT22;10678;51.002;4.786;2023-04-06T04:45:35;6.90;99.90
21039;DHT22;10678;51.002;4.786;2023-04-06T04:48:01;7.00;99.90
21039;DHT22;10678;51.002;4.786;2023-04-06T04:50:26;7.00;99.90
21039;DHT22;10678;51.002;4.786;2023-04-06T04:52:52;7.00;99.90
21039;DHT22;10678;51.002;4.786;2023-04-06T04:55:17;7.10;99.90
21039;DHT22;10678;51.002;4.786;2023-04-06T04:57:43;7.00;99.90
21039;DHT22;10678;51.002;4.786;2023-04-06T05:00:09;7.10;99.90
21039;DHT22;10678;51.002;4.786;2023-04-06T05:02:35;7.00;99.90
21039;DHT22;10678;51.002;4.786;2023-04-06T05:05:01;7.10;99.90
21039;DHT22;10678;51.002;4.786;2023-04-06T05:07:27;7.10;99.90
21039;DHT22;10678;51.002;4.786;2023-04-06T05:09:52;7.10;99.90
21039;DHT22;10678;51.002;4.786;2023-04-06T05:12:19;7.10;99.90
21039;DHT22;10678;51.002;4.786;2023-04-06T05:14:45;7.20;99.90
21039;DHT22;10678;51.002;4.786;2023-04-06T05:17:11;7.20;99.90
21039;DHT22;10678;51.002;4.786;2023-04-06T05:19:36;7.20;99.90
21039;DHT22;10678;51.002;4.786;2023-04-06T05:22:02;7.20;99.90
21039;DHT22;10678;51.002;4.786;2023-04-06T05:24:28;7.30;99.90
21039;DHT22;10678;51.002;4.786;2023-04-06T05:26:54;7.40;99.90
21039;DHT22;10678;51.002;4.786;2023-04-06T05:29:19;7.40;99.90
21039;DHT22;10678;51.002;4.786;2023-04-06T05:31:46;7.40;99.90
21039;DHT22;10678;51.002;4.786;2023-04-06T05:34:12;7.40;99.90
21039;DHT22;10678;51.002;4.786;2023-04-06T05:36:38;7.30;99.90
21039;DHT22;10678;51.002;4.786;2023-04-06T05:39:04;7.30;99.90
21039;DHT22;10678;51.002;4.786;2023-04-06T05:41:29;7.30;99.90
21039;DHT22;10678;51.002;4.786;2023-04-06T05:43:55;7.40;99.90
21039;DHT22;10678;51.002;4.786;2023-04-06T05:46:21;7.40;99.90
21039;DHT22;10678;51.002;4.786;2023-04-06T05:48:46;7.50;99.90
21039;DHT22;10678;51.002;4.786;2023-04-06T05:51:12;7.50;99.90
21039;DHT22;10678;51.002;4.786;2023-04-06T05:53:38;7.60;99.90
21039;DHT22;10678;51.002;4.786;2023-04-06T05:56:04;7.70;99.90
21039;DHT22;10678;51.002;4.786;2023-04-06T05:58:29;7.70;99.90
21039;DHT22;10678;51.002;4.786;2023-04-06T06:00:59;7.80;99.90
21039;DHT22;10678;51.002;4.786;2023-04-06T06:03:25;7.80;99.90
21039;DHT22;10678;51.002;4.786;2023-04-06T06:05:51;7.90;99.90
21039;DHT22;10678;51.002;4.786;2023-04-06T06:08:17;8.10;99.90
21039;DHT22;10678;51.002;4.786;2023-04-06T06:10:42;8.20;99.90
21039;DHT22;10678;51.002;4.786;2023-04-06T06:13:08;8.30;99.90
21039;DHT22;10678;51.002;4.786;2023-04-06T06:15:34;8.40;99.90
21039;DHT22;10678;51.002;4.786;2023-04-06T06:18:00;8.60;99.90
21039;DHT22;10678;51.002;4.786;2023-04-06T06:20:26;8.80;99.90
21039;DHT22;10678;51.002;4.786;2023-04-06T06:22:52;9.00;99.90
21039;DHT22;10678;51.002;4.786;2023-04-06T06:25:17;9.30;99.90
21039;DHT22;10678;51.002;4.786;2023-04-06T06:27:43;9.50;99.90
21039;DHT22;10678;51.002;4.786;2023-04-06T06:30:09;9.60;99.90
21039;DHT22;10678;51.002;4.786;2023-04-06T06:32:35;9.70;99.90
21039;DHT22;10678;51.002;4.786;2023-04-06T06:35:00;9.90;99.90
21039;DHT22;10678;51.002;4.786;2023-04-06T06:37:26;10.00;99.90
21039;DHT22;10678;51.002;4.786;2023-04-06T06:39:51;10.20;99.90
21039;DHT22;10678;51.002;4.786;2023-04-06T06:42:17;10.30;99.90
21039;DHT22;10678;51.002;4.786;2023-04-06T06:44:43;10.40;99.90
21039;DHT22;10678;51.002;4.786;2023-04-06T06:47:08;10.60;99.90
21039;DHT22;10678;51.002;4.786;2023-04-06T06:49:34;10.70;99.90
21039;DHT22;10678;51.002;4.786;2023-04-06T06:52:00;10.80;99.90
21039;DHT22;10678;51.002;4.786;2023-04-06T06:54:26;10.80;99.90
21039;DHT22;10678;51.002;4.786;2023-04-06T06:56:51;10.70;99.90
21039;DHT22;10678;51.002;4.786;2023-04-06T06:59:17;10.80;99.90
21039;DHT22;10678;51.002;4.786;2023-04-06T07:01:43;10.70;99.90
21039;DHT22;10678;51.002;4.786;2023-04-06T07:04:08;10.80;99.90
21039;DHT22;10678;51.002;4.786;2023-04-06T07:06:37;10.70;99.90
21039;DHT22;10678;51.002;4.786;2023-04-06T07:09:03;10.80;99.90
21039;DHT22;10678;51.002;4.786;2023-04-06T07:11:29;10.80;99.90
21039;DHT22;10678;51.002;4.786;2023-04-06T07:13:55;10.60;99.90
21039;DHT22;10678;51.002;4.786;2023-04-06T07:16:21;10.70;99.90
21039;DHT22;10678;51.002;4.786;2023-04-06T07:18:47;10.50;99.90
21039;DHT22;10678;51.002;4.786;2023-04-06T07:21:12;10.50;99.90
21039;DHT22;10678;51.002;4.786;2023-04-06T07:23:38;10.40;99.90
21039;DHT22;10678;51.002;4.786;2023-04-06T07:26:04;10.60;99.90
21039;DHT22;10678;51.002;4.786;2023-04-06T07:28:30;10.60;99.90
21039;DHT22;10678;51.002;4.786;2023-04-06T07:30:55;10.70;99.90
21039;DHT22;10678;51.002;4.786;2023-04-06T07:33:21;10.70;99.90
21039;DHT22;10678;51.002;4.786;2023-04-06T07:35:47;10.90;99.90
21039;DHT22;10678;51.002;4.786;2023-04-06T07:38:13;11.00;99.90
21039;DHT22;10678;51.002;4.786;2023-04-06T07:40:38;11.00;99.90
21039;DHT22;10678;51.002;4.786;2023-04-06T07:43:04;11.10;99.90
21039;DHT22;10678;51.002;4.786;2023-04-06T07:45:30;10.90;99.90
21039;DHT22;10678;51.002;4.786;2023-04-06T07:47:56;10.80;99.90
21039;DHT22;10678;51.002;4.786;2023-04-06T07:50:21;10.80;99.90
21039;DHT22;10678;51.002;4.786;2023-04-06T07:52:47;10.90;99.90
21039;DHT22;10678;51.002;4.786;2023-04-06T07:55:13;10.90;99.90
21039;DHT22;10678;51.002;4.786;2023-04-06T07:57:39;10.80;99.90
21039;DHT22;10678;51.002;4.786;2023-04-06T08:00:05;10.70;99.90
21039;DHT22;10678;51.002;4.786;2023-04-06T08:02:34;10.70;99.90
21039;DHT22;10678;51.002;4.786;2023-04-06T08:04:59;10.50;99.90
21039;DHT22;10678;51.002;4.786;2023-04-06T08:07:25;10.50;99.90
21039;DHT22;10678;51.002;4.786;2023-04-06T08:09:51;10.70;99.90
21039;DHT22;10678;51.002;4.786;2023-04-06T08:12:17;10.70;99.90
21039;DHT22;10678;51.002;4.786;2023-04-06T08:14:43;10.60;99.90
21039;DHT22;10678;51.002;4.786;2023-04-06T08:17:08;10.80;99.90
21039;DHT22;10678;51.002;4.786;2023-04-06T08:19:34;10.80;99.90
21039;DHT22;10678;51.002;4.786;2023-04-06T08:21:59;10.80;99.90
21039;DHT22;10678;51.002;4.786;2023-04-06T08:24:25;10.90;99.90
21039;DHT22;10678;51.002;4.786;2023-04-06T08:26:51;11.20;99.90
21039;DHT22;10678;51.002;4.786;2023-04-06T08:29:17;11.20;99.90
21039;DHT22;10678;51.002;4.786;2023-04-06T08:31:43;11.10;99.90
21039;DHT22;10678;51.002;4.786;2023-04-06T08:34:08;11.10;99.90
21039;DHT22;10678;51.002;4.786;2023-04-06T08:36:34;11.00;99.90
21039;DHT22;10678;51.002;4.786;2023-04-06T08:39:00;11.10;99.90
21039;DHT22;10678;51.002;4.786;2023-04-06T08:41:27;11.20;99.90
21039;DHT22;10678;51.002;4.786;2023-04-06T08:44:00;11.40;99.90
21039;DHT22;10678;51.002;4.786;2023-04-06T08:46:26;11.30;99.90
21039;DHT22;10678;51.002;4.786;2023-04-06T08:48:57;11.10;99.90
21039;DHT22;10678;51.002;4.786;2023-04-06T08:51:24;11.10;99.90
21039;DHT22;10678;51.002;4.786;2023-04-06T08:53:57;11.20;99.90
21039;DHT22;10678;51.002;4.786;2023-04-06T08:56:24;11.30;99.90
21039;DHT22;10678;51.002;4.786;2023-04-06T08:58:50;11.30;99.90
21039;DHT22;10678;51.002;4.786;2023-04-06T09:01:20;11.20;99.90
21039;DHT22;10678;51.002;4.786;2023-04-06T09:03:46;11.20;99.90
21039;DHT22;10678;51.002;4.786;2023-04-06T09:06:13;11.20;99.90
21039;DHT22;10678;51.002;4.786;2023-04-06T09:08:40;11.30;99.90
21039;DHT22;10678;51.002;4.786;2023-04-06T09:11:06;11.40;99.90
21039;DHT22;10678;51.002;4.786;2023-04-06T09:13:45;11.60;99.90
21039;DHT22;10678;51.002;4.786;2023-04-06T09:16:11;11.70;99.90
21039;DHT22;10678;51.002;4.786;2023-04-06T09:18:36;11.70;99.90
21039;DHT22;10678;51.002;4.786;2023-04-06T09:21:04;11.60;99.90
21039;DHT22;10678;51.002;4.786;2023-04-06T09:23:30;11.60;99.90
21039;DHT22;10678;51.002;4.786;2023-04-06T09:26:10;11.70;99.90
21039;DHT22;10678;51.002;4.786;2023-04-06T09:28:55;11.50;99.90
21039;DHT22;10678;51.002;4.786;2023-04-06T09:31:28;11.50;99.90
21039;DHT22;10678;51.002;4.786;2023-04-06T09:33:56;11.60;99.90
21039;DHT22;10678;51.002;4.786;2023-04-06T09:39:02;11.60;99.90
21039;DHT22;10678;51.002;4.786;2023-04-06T09:41:30;11.70;99.90
21039;DHT22;10678;51.002;4.786;2023-04-06T09:44:06;11.40;99.90
21039;DHT22;10678;51.002;4.786;2023-04-06T09:46:36;11.50;99.90
21039;DHT22;10678;51.002;4.786;2023-04-06T09:49:02;11.60;99.90
21039;DHT22;10678;51.002;4.786;2023-04-06T09:51:39;11.70;99.90
21039;DHT22;10678;51.002;4.786;2023-04-06T09:54:07;12.00;99.90
21039;DHT22;10678;51.002;4.786;2023-04-06T09:59:11;12.50;99.90
21039;DHT22;10678;51.002;4.786;2023-04-06T10:01:39;12.40;99.90
21039;DHT22;10678;51.002;4.786;2023-04-06T10:04:43;12.40;99.90
21039;DHT22;10678;51.002;4.786;2023-04-06T10:07:12;12.30;99.90
21039;DHT22;10678;51.002;4.786;2023-04-06T10:09:38;12.30;99.90
21039;DHT22;10678;51.002;4.786;2023-04-06T10:12:05;12.10;99.90
21039;DHT22;10678;51.002;4.786;2023-04-06T10:14:34;12.20;99.90
21039;DHT22;10678;51.002;4.786;2023-04-06T10:17:04;12.10;99.90
21039;DHT22;10678;51.002;4.786;2023-04-06T10:20:03;12.10;99.90
21039;DHT22;10678;51.002;4.786;2023-04-06T10:22:43;12.00;99.90
21039;DHT22;10678;51.002;4.786;2023-04-06T10:25:16;12.00;99.90
21039;DHT22;10678;51.002;4.786;2023-04-06T10:27:41;12.00;99.90
21039;DHT22;10678;51.002;4.786;2023-04-06T10:30:07;11.90;99.90
21039;DHT22;10678;51.002;4.786;2023-04-06T10:32:38;11.70;99.90
21039;DHT22;10678;51.002;4.786;2023-04-06T10:35:08;11.80;99.90
21039;DHT22;10678;51.002;4.786;2023-04-06T10:38:04;11.90;99.90
21039;DHT22;10678;51.002;4.786;2023-04-06T10:40:30;11.90;99.90
21039;DHT22;10678;51.002;4.786;2023-04-06T10:43:19;11.80;99.90
21039;DHT22;10678;51.002;4.786;2023-04-06T10:45:45;11.70;99.90
21039;DHT22;10678;51.002;4.786;2023-04-06T10:48:19;11.60;99.90
21039;DHT22;10678;51.002;4.786;2023-04-06T10:50:48;11.70;99.90
21039;DHT22;10678;51.002;4.786;2023-04-06T10:53:24;11.80;99.90
21039;DHT22;10678;51.002;4.786;2023-04-06T10:55:51;11.90;99.90
21039;DHT22;10678;51.002;4.786;2023-04-06T10:58:18;12.00;99.90
21039;DHT22;10678;51.002;4.786;2023-04-06T11:00:47;12.00;99.90
21039;DHT22;10678;51.002;4.786;2023-04-06T11:03:14;12.10;99.90
21039;DHT22;10678;51.002;4.786;2023-04-06T11:05:46;12.20;99.90
21039;DHT22;10678;51.002;4.786;2023-04-06T11:08:25;12.20;99.90
21039;DHT22;10678;51.002;4.786;2023-04-06T11:10:51;12.30;99.90
21039;DHT22;10678;51.002;4.786;2023-04-06T11:13:17;12.10;99.90
21039;DHT22;10678;51.002;4.786;2023-04-06T11:15:43;12.30;99.90
21039;DHT22;10678;51.002;4.786;2023-04-06T11:18:09;12.20;99.90
21039;DHT22;10678;51.002;4.786;2023-04-06T11:20:36;11.80;99.90
21039;DHT22;10678;51.002;4.786;2023-04-06T11:23:02;11.80;99.90
21039;DHT22;10678;51.002;4.786;2023-04-06T11:25:29;11.80;99.90
21039;DHT22;10678;51.002;4.786;2023-04-06T11:27:57;11.90;99.90
21039;DHT22;10678;51.002;4.786;2023-04-06T11:30:22;11.70;99.90
21039;DHT22;10678;51.002;4.786;2023-04-06T11:32:48;11.70;99.90
21039;DHT22;10678;51.002;4.786;2023-04-06T11:35:21;11.70;99.90
21039;DHT22;10678;51.002;4.786;2023-04-06T11:37:49;11.50;99.90
21039;DHT22;10678;51.002;4.786;2023-04-06T11:40:15;11.50;99.90
21039;DHT22;10678;51.002;4.786;2023-04-06T11:42:41;11.70;99.90
21039;DHT22;10678;51.002;4.786;2023-04-06T11:45:07;11.60;99.90
21039;DHT22;10678;51.002;4.786;2023-04-06T11:47:36;11.50;99.90
21039;DHT22;10678;51.002;4.786;2023-04-06T11:50:07;11.50;99.90
21039;DHT22;10678;51.002;4.786;2023-04-06T11:52:33;11.60;99.90
21039;DHT22;10678;51.002;4.786;2023-04-06T11:55:10;11.80;99.90
21039;DHT22;10678;51.002;4.786;2023-04-06T11:57:36;11.70;99.90
21039;DHT22;10678;51.002;4.786;2023-04-06T12:00:02;11.60;99.90
21039;DHT22;10678;51.002;4.786;2023-04-06T12:02:28;11.70;99.90
21039;DHT22;10678;51.002;4.786;2023-04-06T12:04:53;11.90;99.90
21039;DHT22;10678;51.002;4.786;2023-04-06T12:07:19;11.90;99.90
21039;DHT22;10678;51.002;4.786;2023-04-06T12:09:45;11.80;99.90
21039;DHT22;10678;51.002;4.786;2023-04-06T12:12:10;12.00;99.90
21039;DHT22;10678;51.002;4.786;2023-04-06T12:14:36;12.00;99.90
21039;DHT22;10678;51.002;4.786;2023-04-06T12:17:01;11.90;99.90
21039;DHT22;10678;51.002;4.786;2023-04-06T12:19:28;11.80;99.90
21039;DHT22;10678;51.002;4.786;2023-04-06T12:21:54;11.90;99.90
21039;DHT22;10678;51.002;4.786;2023-04-06T12:24:20;11.70;99.90
21039;DHT22;10678;51.002;4.786;2023-04-06T12:26:46;11.80;99.90
21039;DHT22;10678;51.002;4.786;2023-04-06T12:29:12;11.70;99.90
21039;DHT22;10678;51.002;4.786;2023-04-06T12:31:39;11.80;99.90
21039;DHT22;10678;51.002;4.786;2023-04-06T12:34:06;12.00;99.90
21039;DHT22;10678;51.002;4.786;2023-04-06T12:36:32;12.00;99.90
21039;DHT22;10678;51.002;4.786;2023-04-06T12:38:59;11.90;99.90
21039;DHT22;10678;51.002;4.786;2023-04-06T12:41:25;12.00;99.90
21039;DHT22;10678;51.002;4.786;2023-04-06T12:43:51;12.20;99.90
21039;DHT22;10678;51.002;4.786;2023-04-06T12:46:17;11.80;99.90
21039;DHT22;10678;51.002;4.786;2023-04-06T12:48:43;11.90;99.90
21039;DHT22;10678;51.002;4.786;2023-04-06T12:51:08;11.80;99.90
21039;DHT22;10678;51.002;4.786;2023-04-06T12:53:35;11.90;99.90
21039;DHT22;10678;51.002;4.786;2023-04-06T12:56:01;11.70;99.90
21039;DHT22;10678;51.002;4.786;2023-04-06T12:58:27;11.40;99.90
21039;DHT22;10678;51.002;4.786;2023-04-06T13:00:53;11.60;99.90
21039;DHT22;10678;51.002;4.786;2023-04-06T13:03:21;11.70;99.90
21039;DHT22;10678;51.002;4.786;2023-04-06T13:05:48;11.90;99.90
21039;DHT22;10678;51.002;4.786;2023-04-06T13:08:15;12.10;99.90
21039;DHT22;10678;51.002;4.786;2023-04-06T13:10:48;12.30;99.90
21039;DHT22;10678;51.002;4.786;2023-04-06T13:13:17;12.20;99.90
21039;DHT22;10678;51.002;4.786;2023-04-06T13:15:43;11.90;99.90
21039;DHT22;10678;51.002;4.786;2023-04-06T13:18:10;12.00;99.90
21039;DHT22;10678;51.002;4.786;2023-04-06T13:20:36;11.80;99.90
21039;DHT22;10678;51.002;4.786;2023-04-06T13:23:01;11.90;99.90
21039;DHT22;10678;51.002;4.786;2023-04-06T13:25:27;11.80;99.90
21039;DHT22;10678;51.002;4.786;2023-04-06T13:27:54;11.70;99.90
21039;DHT22;10678;51.002;4.786;2023-04-06T13:30:19;11.80;99.90
21039;DHT22;10678;51.002;4.786;2023-04-06T13:32:45;11.70;99.90
21039;DHT22;10678;51.002;4.786;2023-04-06T13:35:11;11.80;99.90
21039;DHT22;10678;51.002;4.786;2023-04-06T13:37:37;11.70;99.90
21039;DHT22;10678;51.002;4.786;2023-04-06T13:40:03;11.60;99.90
21039;DHT22;10678;51.002;4.786;2023-04-06T13:42:30;11.70;99.90
21039;DHT22;10678;51.002;4.786;2023-04-06T13:44:56;11.50;99.90
21039;DHT22;10678;51.002;4.786;2023-04-06T13:47:21;11.70;99.90
21039;DHT22;10678;51.002;4.786;2023-04-06T13:49:47;11.80;99.90
21039;DHT22;10678;51.002;4.786;2023-04-06T13:52:13;11.80;99.90
21039;DHT22;10678;51.002;4.786;2023-04-06T13:54:39;11.80;99.90
21039;DHT22;10678;51.002;4.786;2023-04-06T13:57:04;11.70;99.90
21039;DHT22;10678;51.002;4.786;2023-04-06T13:59:34;11.80;99.90
21039;DHT22;10678;51.002;4.786;2023-04-06T14:02:01;11.60;99.90
21039;DHT22;10678;51.002;4.786;2023-04-06T14:04:26;11.20;99.90
21039;DHT22;10678;51.002;4.786;2023-04-06T14:06:52;11.30;99.90
21039;DHT22;10678;51.002;4.786;2023-04-06T14:09:18;11.20;99.90
21039;DHT22;10678;51.002;4.786;2023-04-06T14:11:43;11.10;99.90
21039;DHT22;10678;51.002;4.786;2023-04-06T14:14:09;11.10;99.90
21039;DHT22;10678;51.002;4.786;2023-04-06T14:16:35;11.30;99.90
21039;DHT22;10678;51.002;4.786;2023-04-06T14:19:00;11.30;99.90
21039;DHT22;10678;51.002;4.786;2023-04-06T14:21:26;11.30;99.90
21039;DHT22;10678;51.002;4.786;2023-04-06T14:23:52;11.40;99.90
21039;DHT22;10678;51.002;4.786;2023-04-06T14:26:18;11.20;99.90
21039;DHT22;10678;51.002;4.786;2023-04-06T14:28:45;11.40;99.90
21039;DHT22;10678;51.002;4.786;2023-04-06T14:31:13;11.40;99.90
21039;DHT22;10678;51.002;4.786;2023-04-06T14:33:40;11.50;99.90
21039;DHT22;10678;51.002;4.786;2023-04-06T14:36:07;11.50;99.90
21039;DHT22;10678;51.002;4.786;2023-04-06T14:38:33;11.30;99.90
21039;DHT22;10678;51.002;4.786;2023-04-06T14:40:58;11.40;99.90
21039;DHT22;10678;51.002;4.786;2023-04-06T14:43:24;11.10;99.90
21039;DHT22;10678;51.002;4.786;2023-04-06T14:45:51;11.40;99.90
21039;DHT22;10678;51.002;4.786;2023-04-06T14:48:17;11.40;99.90
21039;DHT22;10678;51.002;4.786;2023-04-06T14:50:53;11.40;99.90
21039;DHT22;10678;51.002;4.786;2023-04-06T14:53:19;11.40;99.90
21039;DHT22;10678;51.002;4.786;2023-04-06T14:55:45;11.50;99.90
21039;DHT22;10678;51.002;4.786;2023-04-06T14:58:10;11.40;99.90
21039;DHT22;10678;51.002;4.786;2023-04-06T15:00:37;11.30;99.90
21039;DHT22;10678;51.002;4.786;2023-04-06T15:03:03;11.30;99.90
21039;DHT22;10678;51.002;4.786;2023-04-06T15:05:29;11.50;99.90
21039;DHT22;10678;51.002;4.786;2023-04-06T15:07:56;11.30;99.90
21039;DHT22;10678;51.002;4.786;2023-04-06T15:10:22;11.20;99.90
21039;DHT22;10678;51.002;4.786;2023-04-06T15:12:47;11.40;99.90
21039;DHT22;10678;51.002;4.786;2023-04-06T15:15:13;11.60;99.90
21039;DHT22;10678;51.002;4.786;2023-04-06T15:17:39;11.40;99.90
21039;DHT22;10678;51.002;4.786;2023-04-06T15:20:05;11.30;99.90
21039;DHT22;10678;51.002;4.786;2023-04-06T15:22:31;11.40;99.90
21039;DHT22;10678;51.002;4.786;2023-04-06T15:24:56;11.40;99.90
21039;DHT22;10678;51.002;4.786;2023-04-06T15:27:23;11.50;99.90
21039;DHT22;10678;51.002;4.786;2023-04-06T15:29:49;11.50;99.90
21039;DHT22;10678;51.002;4.786;2023-04-06T15:32:14;11.60;99.90
21039;DHT22;10678;51.002;4.786;2023-04-06T15:34:40;11.60;99.90
21039;DHT22;10678;51.002;4.786;2023-04-06T15:37:06;11.90;99.90
21039;DHT22;10678;51.002;4.786;2023-04-06T15:39:32;12.00;99.90